Time;durP1;ratioP1;P1;durP2;ratioP2;P2;SDS_P1;SDS_P2;PMS_P1;PMS_P2;Temp;Humidity;BMP_temperature;BMP_pressure;BME280_temperature;BME280_humidity;BME280_pressure;Samples;Min_cycle;Max_cycle;Signal;HPM_P1;HPM_P2
2022/09/29 00:02:16;;;;;;;2.60;1.52;;;;;;;9.07;83.60;100077.09;5054183;27;96792;-30
2022/09/29 00:04:42;;;;;;;2.30;1.52;;;;;;;9.02;83.77;100065.75;5053385;27;98030;-30
2022/09/29 00:07:07;;;;;;;3.50;1.90;;;;;;;9.06;83.76;100073.53;5053337;27;97339;-29
2022/09/29 00:09:32;;;;;;;3.53;1.60;;;;;;;9.04;83.78;100074.63;5052781;27;96545;-28
2022/09/29 00:11:58;;;;;;;3.25;1.60;;;;;;;9.02;83.64;100074.69;5053220;27;96804;-28
2022/09/29 00:14:23;;;;;;;7.97;2.28;;;;;;;9.00;83.65;100065.84;5052690;27;97894;-29
2022/09/29 00:16:49;;;;;;;4.07;1.80;;;;;;;9.00;83.84;100073.06;5053169;27;97239;-29
2022/09/29 00:19:15;;;;;;;3.08;1.73;;;;;;;9.01;83.80;100080.19;5052982;27;96552;-29
2022/09/29 00:21:40;;;;;;;3.78;1.60;;;;;;;8.99;83.65;100072.22;5052956;27;96769;-29
2022/09/29 00:24:05;;;;;;;3.20;2.03;;;;;;;8.98;83.73;100075.00;5051983;27;107805;-30
2022/09/29 00:26:31;;;;;;;1.95;1.42;;;;;;;8.93;83.81;100073.47;5053104;27;99106;-28
2022/09/29 00:28:58;;;;;;;3.47;2.13;;;;;;;8.96;83.67;100074.25;5052418;27;98105;-30
2022/09/29 00:31:27;;;;;;;5.25;2.22;;;;;;;8.91;83.77;100074.56;5034519;27;96778;-28
2022/09/29 00:33:52;;;;;;;4.43;1.90;;;;;;;8.92;84.07;100079.00;5033658;27;100804;-29
2022/09/29 00:36:19;;;;;;;3.42;2.22;;;;;;;8.88;83.88;100070.22;5053118;27;97151;-30
2022/09/29 00:38:46;;;;;;;4.15;2.00;;;;;;;8.90;84.03;100072.84;5034234;27;99522;-28
2022/09/29 00:41:23;;;;;;;2.90;1.73;;;;;;;8.88;84.00;100081.03;5052558;27;96817;-28
2022/09/29 00:43:48;;;;;;;3.88;2.22;;;;;;;8.90;84.01;100073.69;5052363;27;99841;-29
2022/09/29 00:46:18;;;;;;;4.60;2.15;;;;;;;8.85;84.94;100078.53;5052651;27;97891;-28
2022/09/29 00:48:45;;;;;;;3.17;2.00;;;;;;;8.87;84.48;100079.31;5034358;27;96577;-29
2022/09/29 00:51:10;;;;;;;4.28;2.45;;;;;;;8.87;84.70;100075.75;5034606;27;96769;-28
2022/09/29 00:53:36;;;;;;;2.53;1.63;;;;;;;8.87;84.70;100076.59;5052611;27;97887;-29
2022/09/29 00:56:06;;;;;;;2.85;1.85;;;;;;;8.85;84.89;100078.53;5033897;27;100716;-28
2022/09/29 00:58:36;;;;;;;4.97;2.65;;;;;;;8.87;84.37;100076.59;5051972;27;96554;-28
2022/09/29 01:01:02;;;;;;;3.28;1.90;;;;;;;8.86;84.50;100074.84;5034140;27;96772;-29
2022/09/29 01:03:32;;;;;;;4.03;2.20;;;;;;;8.87;84.50;100079.31;5052283;27;98099;-29
2022/09/29 01:06:09;;;;;;;3.53;2.20;;;;;;;8.86;84.88;100076.69;5033824;27;100869;-28
2022/09/29 01:08:57;;;;;;;3.20;1.83;;;;;;;8.87;84.88;100070.34;5052511;27;96464;-29
2022/09/29 01:11:23;;;;;;;6.30;2.53;;;;;;;8.85;84.50;100067.75;5052767;27;97046;-28
2022/09/29 01:13:49;;;;;;;3.75;2.03;;;;;;;8.86;84.78;100071.28;5052471;27;97457;-28
2022/09/29 01:16:14;;;;;;;3.42;2.05;;;;;;;8.83;84.58;100061.56;5034218;27;100933;-29
2022/09/29 01:18:42;;;;;;;5.40;2.47;;;;;;;8.85;84.46;100066.88;5052551;27;96744;-29
2022/09/29 01:21:17;;;;;;;4.60;2.08;;;;;;;8.85;84.26;100067.75;5033119;27;96797;-29
2022/09/29 01:24:17;;;;;;;2.75;1.63;;;;;;;8.83;84.39;100064.28;5051477;27;99329;-30
2022/09/29 01:27:14;;;;;;;4.53;1.70;;;;;;;8.78;84.56;100063.72;4995753;27;99204;-30
2022/09/29 01:30:02;;;;;;;4.28;2.25;;;;;;;8.77;84.64;100066.50;5052021;27;96525;-29
2022/09/29 01:33:06;;;;;;;2.60;1.73;;;;;;;8.73;84.67;100076.66;5033796;27;96658;-29
2022/09/29 01:35:38;;;;;;;6.32;2.30;;;;;;;8.69;84.40;100067.03;4996010;27;100833;-29
2022/09/29 01:38:22;;;;;;;4.38;2.70;;;;;;;8.65;84.75;100068.19;5037132;27;100772;-29
2022/09/29 01:40:54;;;;;;;5.47;1.70;;;;;;;8.68;84.58;100070.72;5037262;27;96604;-29
2022/09/29 01:43:26;;;;;;;5.13;2.78;;;;;;;8.64;84.42;100064.63;5037700;27;96845;-29
2022/09/29 01:46:20;;;;;;;3.50;2.15;;;;;;;8.65;85.11;100068.19;5036973;27;101112;-28
2022/09/29 01:48:51;;;;;;;3.85;1.77;;;;;;;8.61;84.91;100066.69;5024863;27;99223;-29
2022/09/29 01:51:23;;;;;;;3.20;2.17;;;;;;;8.60;85.49;100067.63;5036722;27;97549;-29
2022/09/29 01:53:54;;;;;;;3.92;2.28;;;;;;;8.59;84.87;100071.31;5037070;27;96713;-29
2022/09/29 01:56:30;;;;;;;4.53;2.42;;;;;;;8.59;84.83;100068.63;5036773;27;101334;-29
2022/09/29 01:59:04;;;;;;;2.88;1.73;;;;;;;8.54;84.57;100073.44;5036842;27;100622;-29
2022/09/29 02:01:35;;;;;;;4.85;3.03;;;;;;;8.55;84.67;100075.16;5036979;27;96610;-30
2022/09/29 02:04:24;;;;;;;9.38;2.35;;;;;;;8.51;84.42;100074.53;5036853;27;96700;-28
2022/09/29 02:06:58;;;;;;;3.75;1.75;;;;;;;8.47;84.41;100070.28;5054868;27;97925;-28
2022/09/29 02:09:29;;;;;;;9.20;3.85;;;;;;;8.46;84.48;100065.84;5037031;27;101038;-28
2022/09/29 02:11:57;;;;;;;4.93;2.38;;;;;;;8.43;84.47;100071.44;5036931;27;96609;-30
2022/09/29 02:14:28;;;;;;;9.15;3.53;;;;;;;8.42;84.35;100067.88;5036432;27;96912;-29
2022/09/29 02:17:11;;;;;;;6.72;3.10;;;;;;;8.41;84.47;100067.97;5036215;27;100719;-29
2022/09/29 02:19:41;;;;;;;8.13;2.80;;;;;;;8.38;84.09;100069.00;5055230;27;97839;-28
2022/09/29 02:22:07;;;;;;;7.35;3.35;;;;;;;8.33;84.32;100064.88;5036043;27;96631;-29
2022/09/29 02:24:32;;;;;;;6.97;3.25;;;;;;;8.32;84.37;100065.84;5055084;27;96845;-28
2022/09/29 02:26:58;;;;;;;7.68;3.22;;;;;;;8.29;84.26;100058.81;5054741;27;98824;-28
2022/09/29 02:29:23;;;;;;;4.97;2.90;;;;;;;8.27;84.41;100061.63;5054774;27;97791;-29
2022/09/29 02:31:48;;;;;;;6.38;3.35;;;;;;;8.26;84.36;100067.09;5054770;27;96660;-30
2022/09/29 02:34:17;;;;;;;7.10;3.53;;;;;;;8.23;84.04;100062.78;5054931;27;96494;-29
2022/09/29 02:37:06;;;;;;;7.20;3.53;;;;;;;8.24;84.50;100074.44;5036112;27;100840;-28
2022/09/29 02:39:54;;;;;;;8.82;2.95;;;;;;;8.21;84.56;100066.53;5055153;27;97366;-29
2022/09/29 02:42:22;;;;;;;7.65;3.00;;;;;;;8.23;84.40;100073.56;5054455;27;96717;-29
2022/09/29 02:45:34;;;;;;;7.38;3.33;;;;;;;8.18;84.23;100073.00;5054806;27;96821;-33
2022/09/29 02:48:36;;;;;;;5.90;2.85;;;;;;;8.18;84.71;100075.69;5054349;27;97670;-28
2022/09/29 02:51:10;;;;;;;7.00;3.22;;;;;;;8.18;84.32;100074.84;5054518;27;97915;-29
2022/09/29 02:53:45;;;;;;;8.38;3.15;;;;;;;8.14;84.34;100065.22;5036175;27;96684;-28
2022/09/29 02:56:42;;;;;;;5.80;3.47;;;;;;;8.15;84.45;100073.22;5036197;27;96718;-29
2022/09/29 02:59:41;;;;;;;4.57;2.92;;;;;;;8.17;84.83;100073.09;5054061;27;99648;-28
2022/09/29 03:02:07;;;;;;;6.38;2.83;;;;;;;8.15;84.53;100069.63;5054642;27;97931;-29
2022/09/29 03:04:32;;;;;;;5.88;3.35;;;;;;;8.14;84.44;100071.47;5035842;27;96716;-30
2022/09/29 03:06:57;;;;;;;5.80;3.20;;;;;;;8.15;84.91;100069.63;5054422;27;96804;-30
2022/09/29 03:09:23;;;;;;;5.20;2.78;;;;;;;8.17;85.08;100073.94;5053298;27;98444;-29
2022/09/29 03:11:48;;;;;;;4.88;3.00;;;;;;;8.19;84.92;100080.13;5054269;27;97856;-28
2022/09/29 03:14:13;;;;;;;5.85;2.65;;;;;;;8.20;84.78;100073.78;5054056;27;96539;-29
2022/09/29 03:16:39;;;;;;;5.18;2.97;;;;;;;8.18;85.03;100078.41;5054232;27;96797;-28
2022/09/29 03:19:06;;;;;;;4.55;2.35;;;;;;;8.19;84.99;100074.72;5053995;27;98443;-29
2022/09/29 03:21:32;;;;;;;5.55;2.83;;;;;;;8.19;84.83;100076.56;5035254;27;101212;-29
2022/09/29 03:23:57;;;;;;;6.10;2.88;;;;;;;8.20;84.74;100078.28;5053973;27;97168;-30
2022/09/29 03:26:23;;;;;;;4.38;2.53;;;;;;;8.20;84.63;100081.88;5054267;27;96910;-28
2022/09/29 03:28:49;;;;;;;6.53;2.65;;;;;;;8.19;84.89;100084.66;5053881;27;97414;-30
2022/09/29 03:31:15;;;;;;;6.18;2.88;;;;;;;8.19;84.78;100081.97;5035460;27;100915;-28
2022/09/29 03:33:40;;;;;;;4.85;3.05;;;;;;;8.13;84.43;100082.34;5053016;27;96820;-30
2022/09/29 03:36:07;;;;;;;5.45;2.53;;;;;;;8.16;84.66;100084.84;5053626;27;96761;-29
2022/09/29 03:38:33;;;;;;;5.03;2.88;;;;;;;8.08;84.26;100078.13;5035123;27;100866;-29
2022/09/29 03:40:58;;;;;;;4.82;2.83;;;;;;;8.06;84.53;100076.50;5054006;27;97505;-29
2022/09/29 03:43:24;;;;;;;4.10;2.35;;;;;;;8.07;84.30;100084.47;5053618;27;96490;-29
2022/09/29 03:45:51;;;;;;;7.38;3.67;;;;;;;8.02;84.55;100077.63;5053682;27;96824;-28
2022/09/29 03:48:17;;;;;;;5.13;2.83;;;;;;;8.00;84.64;100087.66;5035020;27;101295;-29
2022/09/29 03:50:44;;;;;;;9.57;3.25;;;;;;;8.00;84.59;100095.75;5035534;27;100871;-29
2022/09/29 03:53:10;;;;;;;4.47;2.85;;;;;;;7.99;84.46;100096.72;5034976;27;96685;-29
2022/09/29 03:55:35;;;;;;;6.35;2.88;;;;;;;7.97;84.54;100093.25;5053391;27;96545;-29
2022/09/29 03:58:00;;;;;;;5.82;3.15;;;;;;;7.92;84.43;100098.94;5052244;27;97926;-29
2022/09/29 04:00:26;;;;;;;4.43;2.95;;;;;;;7.90;84.51;100102.69;5053087;27;99120;-29
2022/09/29 04:02:53;;;;;;;4.78;2.95;;;;;;;7.86;84.58;100100.19;5053563;27;96542;-28
2022/09/29 04:05:19;;;;;;;6.60;2.65;;;;;;;7.85;84.64;100097.56;5034877;27;96906;-29
2022/09/29 04:07:44;;;;;;;7.93;3.83;;;;;;;7.83;84.80;100103.06;5053169;27;98042;-29
2022/09/29 04:10:09;;;;;;;8.38;3.85;;;;;;;7.84;84.80;100101.22;5053390;27;97130;-29
2022/09/29 04:12:34;;;;;;;6.72;4.10;;;;;;;7.79;84.85;100098.81;5052960;27;96577;-29
2022/09/29 04:15:00;;;;;;;12.00;3.70;;;;;;;7.77;85.08;100102.56;5053489;27;96786;-28
2022/09/29 04:17:25;;;;;;;6.30;3.13;;;;;;;7.77;85.06;100099.88;5052859;27;99747;-29
2022/09/29 04:19:51;;;;;;;9.57;3.22;;;;;;;7.80;84.95;100102.41;5053305;27;100772;-29
2022/09/29 04:22:17;;;;;;;5.57;2.40;;;;;;;7.75;85.20;100094.59;5052146;27;96799;-29
2022/09/29 04:24:43;;;;;;;6.82;3.95;;;;;;;7.79;84.93;100098.81;5034516;27;97311;-29
2022/09/29 04:27:09;;;;;;;4.18;2.30;;;;;;;7.78;84.94;100099.78;5034523;27;101338;-28
2022/09/29 04:29:34;;;;;;;7.85;3.38;;;;;;;7.75;84.99;100101.81;5052951;27;97224;-29
2022/09/29 04:31:59;;;;;;;7.25;3.75;;;;;;;7.75;84.89;100108.06;5053109;27;96515;-30
2022/09/29 04:34:25;;;;;;;5.07;3.28;;;;;;;7.77;84.88;100105.25;5052725;27;96807;-29
2022/09/29 04:36:50;;;;;;;5.00;2.88;;;;;;;7.72;84.82;100101.97;5052554;27;97212;-28
2022/09/29 04:39:15;;;;;;;3.67;2.10;;;;;;;7.70;85.04;100118.28;5053170;27;97769;-28
2022/09/29 04:41:41;;;;;;;6.32;2.90;;;;;;;7.69;85.24;100113.81;5052923;27;96503;-28
2022/09/29 04:44:06;;;;;;;5.43;3.00;;;;;;;7.69;85.58;100121.91;5052980;27;96753;-28
2022/09/29 04:46:31;;;;;;;6.97;3.30;;;;;;;7.69;85.79;100121.91;5052331;27;98084;-28
2022/09/29 04:48:57;;;;;;;7.35;4.03;;;;;;;7.73;85.48;100125.31;5052698;27;98770;-28
2022/09/29 04:51:22;;;;;;;9.00;3.65;;;;;;;7.73;85.30;100125.31;5052734;27;96552;-30
2022/09/29 04:53:47;;;;;;;6.43;3.25;;;;;;;7.75;85.35;100135.03;5052707;27;96794;-29
2022/09/29 04:56:13;;;;;;;5.97;2.78;;;;;;;7.74;85.43;100133.28;5052264;27;99308;-29
2022/09/29 04:58:38;;;;;;;5.20;2.97;;;;;;;7.74;85.24;100133.28;5052430;27;99525;-28
2022/09/29 05:01:06;;;;;;;6.80;3.55;;;;;;;7.75;85.25;100137.72;5052410;27;96588;-29
2022/09/29 05:03:31;;;;;;;7.38;3.50;;;;;;;7.72;85.34;100135.19;5034542;27;96856;-29
2022/09/29 05:05:56;;;;;;;6.95;3.03;;;;;;;7.70;85.11;100136.25;5052299;27;98074;-29
2022/09/29 05:08:22;;;;;;;5.95;2.97;;;;;;;7.73;85.00;100146.88;5052100;27;98614;-30
2022/09/29 05:10:50;;;;;;;4.15;2.92;;;;;;;7.68;85.04;100148.97;5051938;27;96613;-30
2022/09/29 05:13:15;;;;;;;5.43;3.42;;;;;;;7.68;85.14;100149.84;5034024;27;96873;-29
2022/09/29 05:15:40;;;;;;;7.63;3.03;;;;;;;7.68;85.14;100148.97;5052441;27;98078;-28
2022/09/29 05:18:06;;;;;;;4.57;2.80;;;;;;;7.62;85.29;100150.19;5052291;27;98296;-29
2022/09/29 05:20:32;;;;;;;6.00;2.53;;;;;;;7.66;85.35;100163.41;5033904;27;96593;-29
2022/09/29 05:22:58;;;;;;;7.95;3.78;;;;;;;7.66;85.41;100159.84;5033814;27;96900;-30
2022/09/29 05:25:24;;;;;;;6.15;2.67;;;;;;;7.61;84.98;100164.66;5033683;27;98906;-28
2022/09/29 05:27:50;;;;;;;4.35;2.72;;;;;;;7.60;85.29;100161.09;5034119;27;101211;-29
2022/09/29 05:30:15;;;;;;;6.28;2.90;;;;;;;7.60;85.28;100163.78;5052115;27;96461;-31
2022/09/29 05:32:42;;;;;;;5.95;3.53;;;;;;;7.58;85.41;100160.31;5052006;27;96717;-28
2022/09/29 05:35:08;;;;;;;4.90;3.15;;;;;;;7.60;85.23;100165.59;5033189;27;99407;-29
2022/09/29 05:37:33;;;;;;;8.93;3.38;;;;;;;7.59;85.35;100171.97;5051717;27;97974;-29
2022/09/29 05:39:59;;;;;;;8.80;4.38;;;;;;;7.61;85.37;100170.91;5052177;27;96430;-29
2022/09/29 05:42:24;;;;;;;6.60;3.20;;;;;;;7.60;84.94;100177.25;5052409;27;96728;-29
2022/09/29 05:44:50;;;;;;;7.75;3.40;;;;;;;7.57;85.18;100163.94;5051972;27;98252;-30
2022/09/29 05:47:15;;;;;;;9.32;4.30;;;;;;;7.58;85.33;100165.72;5051813;27;97407;-29
2022/09/29 05:49:41;;;;;;;17.45;4.60;;;;;;;7.58;85.34;100176.50;5051837;27;96461;-29
2022/09/29 05:52:06;;;;;;;7.57;4.00;;;;;;;7.54;85.10;100171.38;5052557;27;96793;-28
2022/09/29 05:54:31;;;;;;;9.70;4.28;;;;;;;7.54;84.99;100172.22;5051850;27;97453;-31
2022/09/29 05:56:57;;;;;;;9.95;4.80;;;;;;;7.55;85.32;100173.09;5051521;27;99697;-28
2022/09/29 05:59:23;;;;;;;10.63;5.47;;;;;;;7.54;84.91;100169.53;5051552;27;96466;-29
2022/09/29 06:01:48;;;;;;;15.13;5.18;;;;;;;7.54;84.94;100180.31;5051778;27;96808;-30
2022/09/29 06:04:14;;;;;;;17.00;4.78;;;;;;;7.54;85.13;100183.00;5051663;27;97881;-29
2022/09/29 06:06:39;;;;;;;9.63;4.95;;;;;;;7.51;85.28;100175.13;5033046;27;100807;-29
2022/09/29 06:09:05;;;;;;;13.82;5.10;;;;;;;7.54;85.24;100182.16;5051597;27;98881;-29
2022/09/29 06:11:31;;;;;;;8.88;4.93;;;;;;;7.54;85.41;100177.63;5033290;27;97550;-29
2022/09/29 06:13:57;;;;;;;8.02;4.28;;;;;;;7.56;85.07;100180.25;5032862;27;99853;-29
2022/09/29 06:16:26;;;;;;;13.30;4.50;;;;;;;7.57;85.39;100177.44;5033357;27;100988;-29
2022/09/29 06:18:52;;;;;;;7.80;4.30;;;;;;;7.59;85.35;100188.13;5033014;27;96804;-28
2022/09/29 06:21:22;;;;;;;10.55;4.45;;;;;;;7.58;85.22;100180.97;5033111;27;96839;-29
2022/09/29 06:23:48;;;;;;;8.07;4.18;;;;;;;7.59;85.28;100189.00;5054583;27;97900;-28
2022/09/29 06:26:15;;;;;;;9.02;4.30;;;;;;;7.63;85.10;100182.47;5036380;27;100810;-28
2022/09/29 06:28:41;;;;;;;10.98;5.18;;;;;;;7.68;85.26;100198.38;5036317;27;96693;-29
2022/09/29 06:31:10;;;;;;;7.55;3.80;;;;;;;7.68;85.49;100195.66;5055016;27;96789;-28
2022/09/29 06:33:36;;;;;;;8.68;5.00;;;;;;;7.70;85.41;100195.56;5034782;27;101271;-28
2022/09/29 06:39:13;;;;;;;3.92;2.83;;;;;;;7.80;85.16;100212.94;5053911;27;96681;-29
2022/09/29 06:41:39;;;;;;;14.80;4.07;;;;;;;7.81;85.33;100214.66;5036832;27;96782;-29
2022/09/29 06:44:04;;;;;;;6.25;3.95;;;;;;;7.87;86.18;100217.00;5036099;27;101028;-28
2022/09/29 06:46:31;;;;;;;4.47;3.22;;;;;;;7.90;86.38;100215.94;5054445;27;97339;-29
2022/09/29 06:48:56;;;;;;;6.57;3.53;;;;;;;7.91;86.29;100215.81;5035357;27;97437;-29
2022/09/29 06:51:23;;;;;;;5.60;2.97;;;;;;;7.97;86.31;100220.84;5052308;27;97123;-31
2022/09/29 06:53:49;;;;;;;6.15;3.58;;;;;;;8.02;86.44;100212.50;5033520;27;101681;-29
2022/09/29 06:56:15;;;;;;;3.00;2.20;;;;;;;8.08;86.70;100221.06;5034390;27;100443;-29
2022/09/29 06:58:41;;;;;;;7.47;3.38;;;;;;;8.13;85.88;100219.91;5035336;27;96676;-28
2022/09/29 07:01:06;;;;;;;8.05;3.13;;;;;;;8.19;86.02;100219.53;5053689;27;96823;-28
2022/09/29 07:03:34;;;;;;;6.35;3.38;;;;;;;8.26;85.58;100224.44;5053656;27;98946;-29
2022/09/29 07:06:04;;;;;;;6.15;3.67;;;;;;;8.34;86.04;100229.38;5036010;27;100906;-28
2022/09/29 07:08:30;;;;;;;8.98;2.38;;;;;;;8.40;86.48;100231.72;5054165;27;96658;-30
2022/09/29 07:10:56;;;;;;;4.88;3.30;;;;;;;8.47;85.81;100232.22;5035843;27;96712;-29
2022/09/29 07:13:21;;;;;;;6.43;2.90;;;;;;;8.52;86.23;100234.63;5052802;27;99275;-28
2022/09/29 07:15:46;;;;;;;6.47;3.80;;;;;;;8.58;86.11;100234.22;5054178;27;97807;-29
2022/09/29 07:18:12;;;;;;;4.05;2.65;;;;;;;8.64;86.31;100236.53;5053943;27;96554;-29
2022/09/29 07:20:38;;;;;;;4.72;3.17;;;;;;;8.68;86.44;100230.00;5035794;27;96804;-29
2022/09/29 07:23:04;;;;;;;5.13;3.03;;;;;;;8.75;85.59;100242.13;5053356;27;99594;-28
2022/09/29 07:25:30;;;;;;;5.05;3.28;;;;;;;8.82;85.73;100246.19;5053768;27;97830;-29
2022/09/29 07:27:55;;;;;;;6.05;2.92;;;;;;;8.84;86.01;100246.97;5053775;27;96643;-29
2022/09/29 07:30:20;;;;;;;5.43;3.70;;;;;;;8.85;85.45;100248.69;5054744;27;96821;-29
2022/09/29 07:32:46;;;;;;;4.85;3.20;;;;;;;8.88;85.50;100256.56;5052635;27;99157;-30
2022/09/29 07:35:11;;;;;;;5.43;2.67;;;;;;;8.90;85.62;100248.38;5053079;27;99162;-28
2022/09/29 07:37:36;;;;;;;6.95;4.28;;;;;;;8.90;86.37;100251.09;5053065;27;102320;-29
2022/09/29 07:40:02;;;;;;;6.50;3.85;;;;;;;8.93;87.05;100262.53;5053616;27;96868;-28
2022/09/29 07:42:30;;;;;;;5.43;3.40;;;;;;;8.96;86.93;100252.50;5035184;27;101344;-29
2022/09/29 07:44:56;;;;;;;4.50;3.38;;;;;;;8.98;86.41;100246.03;5035235;27;101597;-29
2022/09/29 07:47:21;;;;;;;5.30;3.03;;;;;;;9.11;86.49;100256.94;5053859;27;96664;-29
2022/09/29 07:49:47;;;;;;;5.90;3.63;;;;;;;9.18;86.61;100252.00;5053941;27;96784;-28
2022/09/29 07:52:13;;;;;;;5.28;3.28;;;;;;;9.26;86.83;100255.91;5053438;27;97911;-29
2022/09/29 07:54:38;;;;;;;4.65;2.90;;;;;;;9.31;86.46;100264.59;5053778;27;97758;-29
2022/09/29 07:57:04;;;;;;;6.57;3.17;;;;;;;9.41;86.77;100267.56;5053723;27;96545;-29
2022/09/29 07:59:30;;;;;;;5.45;3.03;;;;;;;9.50;86.63;100263.38;5053781;27;96789;-29
2022/09/29 08:01:55;;;;;;;6.68;4.03;;;;;;;9.61;86.29;100277.06;5052795;27;97931;-29
2022/09/29 08:04:21;;;;;;;8.95;3.92;;;;;;;9.75;85.73;100278.84;5053397;27;97260;-29
2022/09/29 08:06:46;;;;;;;4.63;3.17;;;;;;;9.79;85.66;100275.78;5053445;27;96442;-29
2022/09/29 08:09:12;;;;;;;6.85;3.33;;;;;;;9.86;86.03;100269.97;5053522;27;96714;-30
2022/09/29 08:11:40;;;;;;;6.38;2.85;;;;;;;9.94;84.59;100279.31;5034784;27;101162;-29
2022/09/29 08:14:07;;;;;;;7.57;3.63;;;;;;;9.98;84.47;100278.13;5034437;27;100610;-29
2022/09/29 08:16:34;;;;;;;4.13;2.95;;;;;;;10.03;84.26;100288.63;5034873;27;96480;-30
2022/09/29 08:19:00;;;;;;;7.88;3.38;;;;;;;10.03;84.47;100291.34;5035318;27;97004;-30
2022/09/29 08:21:26;;;;;;;9.50;4.72;;;;;;;10.00;84.84;100292.41;5033632;27;101018;-28
2022/09/29 08:23:51;;;;;;;4.95;3.30;;;;;;;9.97;84.80;100287.22;5034511;27;101403;-29
2022/09/29 08:26:19;;;;;;;6.40;3.30;;;;;;;9.96;85.64;100290.03;5052619;27;96498;-29
2022/09/29 08:28:45;;;;;;;8.18;3.47;;;;;;;9.99;85.77;100295.25;5034604;27;97001;-29
2022/09/29 08:31:13;;;;;;;6.05;3.80;;;;;;;9.97;85.39;100295.34;5034455;27;100950;-28
2022/09/29 08:33:39;;;;;;;6.93;3.53;;;;;;;9.98;86.13;100307.03;5034439;27;100666;-29
2022/09/29 08:36:13;;;;;;;5.65;2.80;;;;;;;10.01;86.30;100309.53;5034497;27;96558;-29
2022/09/29 08:38:41;;;;;;;6.63;3.58;;;;;;;10.05;85.74;100312.88;5052815;27;96716;-28
2022/09/29 08:41:35;;;;;;;6.50;3.85;;;;;;;10.08;85.56;100321.69;5052637;27;97960;-30
2022/09/29 08:44:12;;;;;;;4.90;3.08;;;;;;;10.10;85.23;100326.97;5052821;27;97804;-28
2022/09/29 08:46:43;;;;;;;6.25;3.97;;;;;;;10.11;85.54;100324.16;5034443;27;96603;-30
2022/09/29 08:49:36;;;;;;;4.93;3.33;;;;;;;10.14;85.47;100332.06;5053087;27;96568;-29
2022/09/29 08:52:14;;;;;;;4.97;3.30;;;;;;;10.14;85.48;100339.34;5033683;27;100941;-29
2022/09/29 08:54:42;;;;;;;5.60;3.83;;;;;;;10.16;85.48;100338.25;5034402;27;101474;-29
2022/09/29 08:57:18;;;;;;;8.45;2.90;;;;;;;10.24;86.05;100344.97;5034309;27;96563;-32
2022/09/29 08:59:52;;;;;;;3.95;2.78;;;;;;;10.26;85.56;100343.03;5034336;27;96757;-29
2022/09/29 09:02:39;;;;;;;3.33;2.40;;;;;;;10.33;85.17;100345.25;5052719;27;97568;-29
2022/09/29 09:05:42;;;;;;;5.80;2.97;;;;;;;10.40;85.29;100348.41;5033983;27;99032;-29
2022/09/29 09:08:13;;;;;;;5.93;2.80;;;;;;;10.47;84.72;100357.84;5052407;27;96790;-28
2022/09/29 09:10:47;;;;;;;4.50;2.63;;;;;;;10.52;84.31;100355.69;5053025;27;96832;-29
2022/09/29 09:13:35;;;;;;;4.45;2.90;;;;;;;10.62;84.46;100364.03;5051762;27;99380;-28
2022/09/29 09:16:37;;;;;;;5.65;3.38;;;;;;;10.71;84.85;100360.69;5033801;27;100858;-29
2022/09/29 09:19:25;;;;;;;;;;;;;;;10.78;84.84;100361.97;5052297;27;96445;-28
2022/09/29 09:21:59;;;;;;;4.25;2.63;;;;;;;10.84;83.66;100350.72;5051890;27;96622;-29
2022/09/29 09:24:40;;;;;;;6.13;3.33;;;;;;;10.92;83.43;100347.47;5033514;27;101239;-29
2022/09/29 09:27:14;;;;;;;4.32;2.53;;;;;;;11.01;83.43;100351.34;5033677;27;100918;-29
2022/09/29 09:29:43;;;;;;;4.80;3.22;;;;;;;11.17;82.95;100348.41;5034010;27;96829;-30
2022/09/29 09:32:12;;;;;;;6.55;3.05;;;;;;;11.31;82.35;100356.41;5033798;27;96848;-28
2022/09/29 09:35:23;;;;;;;4.30;2.45;;;;;;;11.55;82.06;100363.72;5033492;27;100977;-29
2022/09/29 09:37:50;;;;;;;5.05;1.90;;;;;;;11.74;81.71;100355.97;5005382;27;97889;-28
2022/09/29 09:40:40;;;;;;;4.60;2.80;;;;;;;12.03;80.96;100364.66;5033877;27;96584;-29
2022/09/29 09:43:11;;;;;;;6.28;3.42;;;;;;;12.32;80.56;100361.56;5033588;27;96773;-28
2022/09/29 09:45:42;;;;;;;4.77;3.20;;;;;;;12.69;78.22;100366.88;5051557;27;98019;-29
2022/09/29 09:48:40;;;;;;;6.00;2.90;;;;;;;13.02;78.04;100360.63;5033552;27;101396;-28
2022/09/29 09:51:43;;;;;;;4.95;3.03;;;;;;;13.50;76.89;100365.00;5052237;27;96556;-28
2022/09/29 09:54:14;;;;;;;4.85;2.58;;;;;;;13.64;74.73;100367.44;5052275;27;96531;-28
2022/09/29 09:56:53;;;;;;;6.03;2.43;;;;;;;13.93;75.00;100375.91;5034255;27;100986;-28
2022/09/29 09:59:19;;;;;;;5.82;3.20;;;;;;;14.33;74.12;100369.84;5036932;27;100882;-30
2022/09/29 10:01:44;;;;;;;10.10;3.55;;;;;;;14.60;73.62;100363.06;5055166;27;96968;-28
2022/09/29 10:04:13;;;;;;;7.32;3.47;;;;;;;14.91;72.85;100358.50;5055392;27;96852;-29
2022/09/29 10:06:39;;;;;;;9.75;3.03;;;;;;;15.20;72.37;100355.94;5055093;27;99680;-29
2022/09/29 10:09:04;;;;;;;6.95;3.22;;;;;;;15.45;71.66;100361.94;5036703;27;99875;-29
2022/09/29 10:11:31;;;;;;;5.70;3.17;;;;;;;15.67;71.07;100359.00;5054692;27;96623;-28
2022/09/29 10:14:02;;;;;;;5.57;2.63;;;;;;;15.90;70.54;100358.81;5036677;27;97269;-28
2022/09/29 10:16:40;;;;;;;5.57;3.08;;;;;;;16.12;69.34;100361.25;5036551;27;102039;-28
2022/09/29 10:19:05;;;;;;;5.22;3.17;;;;;;;16.27;69.18;100360.84;5055283;27;97913;-29
2022/09/29 10:21:30;;;;;;;4.95;2.70;;;;;;;16.43;67.83;100366.59;5054392;27;96750;-28
2022/09/29 10:23:59;;;;;;;5.00;2.78;;;;;;;16.56;66.33;100358.97;5054952;27;96687;-28
2022/09/29 10:26:24;;;;;;;4.72;2.85;;;;;;;16.66;64.88;100363.53;5036343;27;101323;-28
2022/09/29 10:28:59;;;;;;;6.88;2.78;;;;;;;16.80;65.78;100354.06;5055602;27;97167;-29
2022/09/29 10:31:26;;;;;;;4.82;2.20;;;;;;;16.93;66.08;100360.97;5054818;27;96705;-29
2022/09/29 10:33:54;;;;;;;5.75;2.40;;;;;;;16.93;64.96;100368.31;5054565;27;96766;-28
2022/09/29 10:36:21;;;;;;;7.85;2.38;;;;;;;17.07;63.87;100376.03;5035766;27;101117;-28
2022/09/29 10:38:50;;;;;;;3.47;1.77;;;;;;;17.16;64.17;100364.22;5036282;27;100884;-27
2022/09/29 10:41:18;;;;;;;2.58;1.40;;;;;;;17.26;65.73;100366.91;5036370;27;96632;-28
2022/09/29 10:43:44;;;;;;;11.27;2.42;;;;;;;17.39;65.09;100370.16;5036314;27;96731;-28
2022/09/29 10:46:44;;;;;;;2.65;1.63;;;;;;;17.45;60.26;100371.44;5054234;27;98918;-28
2022/09/29 10:49:15;;;;;;;4.32;2.20;;;;;;;17.53;62.85;100370.69;5054461;27;99184;-28
2022/09/29 10:52:05;;;;;;;5.45;1.95;;;;;;;17.72;62.52;100376.06;5036344;27;96526;-29
2022/09/29 10:54:36;;;;;;;3.63;1.85;;;;;;;17.88;63.68;100377.31;5055095;27;96686;-28
2022/09/29 10:57:13;;;;;;;5.03;1.67;;;;;;;18.02;61.27;100376.81;5054639;27;97488;-28
2022/09/29 10:59:46;;;;;;;6.75;1.75;;;;;;;18.13;61.10;100368.34;5054660;27;97791;-28
2022/09/29 11:02:21;;;;;;;2.22;1.15;;;;;;;18.15;60.24;100381.91;5035642;27;97351;-28
2022/09/29 11:04:47;;;;;;;2.00;1.00;;;;;;;18.20;61.24;100369.44;5036092;27;96921;-29
2022/09/29 11:07:12;;;;;;;2.85;1.45;;;;;;;18.35;61.44;100380.75;5054096;27;97479;-29
2022/09/29 11:09:40;;;;;;;2.13;1.27;;;;;;;18.33;59.13;100384.63;5054275;27;97266;-29
2022/09/29 11:12:26;;;;;;;1.88;1.20;;;;;;;18.43;60.84;100385.44;5035945;27;96692;-29
2022/09/29 11:14:51;;;;;;;2.78;1.20;;;;;;;18.64;60.03;100383.22;5054072;27;96584;-28
2022/09/29 11:17:24;;;;;;;9.57;1.90;;;;;;;18.70;59.47;100378.97;5054173;27;98445;-28
2022/09/29 11:19:57;;;;;;;2.88;1.88;;;;;;;18.80;58.84;100384.41;5036130;27;99102;-28
2022/09/29 11:22:45;;;;;;;3.45;1.73;;;;;;;18.66;58.36;100378.47;5035392;27;96768;-29
2022/09/29 11:25:19;;;;;;;3.22;1.55;;;;;;;18.72;58.25;100387.91;5035656;27;96746;-28
2022/09/29 11:27:56;;;;;;;2.83;1.65;;;;;;;18.75;56.84;100384.84;5053254;27;99620;-29
2022/09/29 11:30:32;;;;;;;1.77;1.30;;;;;;;19.00;57.33;100387.84;5053971;27;97657;-29
2022/09/29 11:33:17;;;;;;;3.83;1.33;;;;;;;19.16;59.30;100392.56;5035329;27;96808;-28
2022/09/29 11:35:51;;;;;;;3.50;1.35;;;;;;;19.23;56.95;100389.00;5053663;27;96691;-29
2022/09/29 11:38:33;;;;;;;2.35;1.27;;;;;;;19.27;56.61;100392.31;5035378;27;101396;-29
2022/09/29 11:41:14;;;;;;;4.43;0.97;;;;;;;19.30;55.94;100395.56;5035474;27;101180;-31
2022/09/29 11:43:46;;;;;;;2.73;1.33;;;;;;;19.20;50.26;100396.72;5035463;27;96752;-29
2022/09/29 11:46:30;;;;;;;1.88;1.15;;;;;;;19.12;56.01;100405.75;5035319;27;96882;-30
2022/09/29 11:49:03;;;;;;;1.80;1.50;;;;;;;19.07;54.86;100409.00;5053830;27;97554;-30